Terminal Aerodrome Forecast
Issued by NWS Blacksburg, VA

Home | Current Version | Previous Version | Text Only | Print | Product List | Glossary On
Versions: 1 2 3 4 5 6 7 8 9 10 11 12 13 14 15 16 17 18 19 20 21 22 23 24 25 26 27 28 29 30 31 32 33 34 35 36 37
000
FTUS41 KRNK 211140
TAFBLF
TAF
KBLF 211140Z 2112/2212 27003KT P6SM SCT015 SCT250
     FM211500 29007KT P6SM SCT040 BKN250
     FM211800 27008KT P6SM VCTS SCT045CB BKN250
      TEMPO 2119/2121 28015G25KT 5SM TSRA OVC040CB
     FM212300 25004KT P6SM SCT100 BKN250=

USA.gov is the U.S. government's official web portal to all federal, state and local government web resources and services.